Latest Coastal Weather Observations for Minlaton Airport

IDS60701

Issued at 5:21 am CST Friday 29 April 2016 (issued every 10 minutes, with the page automatically refreshed every 10 minutes)

About coastal observations | Map of coastal stations | Coastal observations for SA | Marine services | Other Formats
Station Details ID: 022031 Name: MINLATON AERO Lat: -34.75 Lon: 137.53 Height: 32.0 m
Data from the previous 72 hours. | See also: Recent months at Minlaton Airport
Date/Time
CST
Temp

°C
Wind Pressure Rain
since 9am
mm
Weather Cloud Vis
km
Sea
Height
m
Swell
Dir
 
Speed
knots
Gust
knots
hPa Trend Height
m
Period
s
Dir
29/05:00am 16.6 NE 5 5 1011.8 - 1.0 - - - - - - -
29/04:30am 16.6 NE 5 6 1011.5 - 1.0 - - - - - - -
29/04:00am 17.1 NNE 6 7 1011.8 - 1.0 - - - - - - -
29/03:30am 16.9 WNW 5 6 1011.9 - 1.0 - - - - - - -
29/03:00am 17.6 W 6 8 1012.2 - 0.6 Rain - - - - - -
29/02:30am 17.8 W 9 10 1012.1 - 0.4 - - - - - - -
29/02:00am 18.4 WNW 10 11 1012.3 - 0.2 - - - - - - -
29/01:30am 18.8 WNW 14 19 1012.1 - 0.2 - - - - - - -
29/01:00am 20.1 NW 15 21 1011.8 - 0.2 - - - - - - -
29/12:30am 20.0 NNW 15 21 1011.2 - 0.2 - - - - - - -
29/12:09am 22.4 N 19 29 1010.8 - 0.2 - - - - - - -
29/12:00am 22.0 N 18 22 1010.5 - 0.2 - - - - - - -
 
Date/Time
CST
Temp

°C
Wind Pressure Rain
since 9am
mm
Weather Cloud Vis
km
Sea
Height
m
Swell
Dir
 
Speed
knots
Gust
knots
hPa Trend Height
m
Period
s
Dir
28/11:30pm 21.5 NNE 20 25 1010.1 - 0.2 - - - - - - -
28/11:00pm 21.7 N 27 34 1010.3 - 0.2 - - - - - - -
28/10:42pm 22.1 N 18 29 1010.5 - 0.2 - - - - - - -
28/10:30pm 21.8 N 15 18 1010.2 - 0.2 - - - - - - -
28/10:00pm 22.7 NNE 17 20 1010.2 - 0.2 - - - - - - -
28/09:30pm 21.2 NNE 17 21 1010.3 - 0.2 - - - - - - -
28/09:00pm 20.0 NE 16 19 1010.1 - 0.2 - - - - - - -
28/08:30pm 19.1 ENE 16 19 1010.6 - 0.2 - - - - - - -
28/08:00pm 19.3 ENE 15 18 1010.8 - 0.2 - - - - - - -
28/07:30pm 18.6 ENE 14 17 1010.8 - 0.2 - - - - - - -
28/07:00pm 18.5 E 14 17 1011.1 - 0.2 - - - - - - -
28/06:30pm 18.9 ENE 14 16 1011.2 - 0.2 - - - - - - -
28/06:00pm 19.3 ENE 13 15 1011.2 - 0.2 - - - - - - -
28/05:30pm 20.3 ENE 12 14 1011.3 - 0.2 - - - - - - -
28/05:00pm 21.2 ENE 11 13 1011.2 - 0.2 - - - - - - -
28/04:30pm 21.8 ENE 10 12 1012.0 - 0.2 - - - - - - -
28/04:00pm 22.2 ENE 12 15 1011.9 - 0.2 - - - - - - -
28/03:30pm 22.8 E 11 13 1012.3 - 0.2 - - - - - - -
28/03:00pm 23.2 E 13 18 1012.2 - 0.2 - - - - - - -
28/02:30pm 22.8 E 9 11 1012.9 - 0.2 - - - - - - -
28/02:00pm 22.9 ENE 11 15 1013.0 - 0.2 - - - - - - -
28/01:30pm 22.5 ENE 10 15 1013.5 - 0.2 - - - - - - -
28/01:00pm 22.7 E 11 15 1013.9 - 0.2 - - - - - - -
28/12:30pm 23.2 ENE 11 15 1014.5 - 0.2 - - - - - - -
28/12:00pm 22.9 ENE 8 11 1015.2 - 0.2 Recent precip. - - - - - -
28/11:30am 22.2 ENE 9 14 1016.0 - 0.2 - - - - - - -
28/11:00am 20.8 E 8 11 1016.7 - 0.0 - - - - - - -
28/10:30am 20.2 ENE 9 12 1017.1 - 0.0 - - - - - - -
28/10:00am 19.4 ENE 7 9 1017.7 - 0.0 - - - - - - -
28/09:30am 17.9 ENE 7 9 1017.8 - 0.0 - - - - - - -
28/09:00am 16.6 E 7 9 1017.9 - 0.0 - - - - - - -
28/08:30am 16.0 E 6 7 1017.7 - 0.0 - - - - - - -
28/08:00am 15.3 ENE 8 10 1017.4 - 0.0 - - - - - - -
28/07:30am 15.3 E 6 7 1017.4 - 0.0 - - - - - - -
28/07:00am 15.2 ENE 6 6 1017.4 - 0.0 - - - - - - -
28/06:30am 15.2 E 4 5 1017.0 - 0.0 - - - - - - -
28/06:00am 15.5 SE 5 6 1016.5 - 0.0 - - - - - - -
28/05:30am 15.2 SSE 7 7 1016.2 - 0.0 - - - - - - -
28/05:00am 15.1 SSE 7 7 1016.3 - 0.0 - - - - - - -
28/04:30am 14.0 SE 6 7 1016.0 - 0.0 - - - - - - -
28/04:00am 15.0 S 5 6 1016.1 - 0.0 - - - - - - -
28/03:30am 14.8 S 4 5 1016.4 - 0.0 - - - - - - -
28/03:00am 14.0 S 4 5 1016.4 - 0.0 - - - - - - -
28/02:30am 16.0 SSW 4 5 1016.3 - 0.0 - - - - - - -
28/02:00am 16.2 SSW 5 6 1016.1 - 0.0 - - - - - - -
28/01:30am 16.7 SW 6 7 1016.3 - 0.0 - - - - - - -
28/01:00am 17.0 SW 9 11 1015.9 - 0.0 - - - - - - -
28/12:30am 16.9 SW 9 10 1015.3 - 0.0 - - - - - - -
28/12:00am 17.3 SW 8 10 1015.2 - 0.0 - - - - - - -
 
Date/Time
CST
Temp

°C
Wind Pressure Rain
since 9am
mm
Weather Cloud Vis
km
Sea
Height
m
Swell
Dir
 
Speed
knots
Gust
knots
hPa Trend Height
m
Period
s
Dir
27/11:30pm 17.3 SW 7 9 1015.3 - 0.0 - - - - - - -
27/11:00pm 16.8 SW 6 8 1015.2 - 0.0 - - - - - - -
27/10:30pm 16.6 SW 7 8 1014.9 - 0.0 - - - - - - -
27/10:00pm 16.0 SW 8 10 1014.7 - 0.0 - - - - - - -
27/09:30pm 16.6 SW 6 8 1014.6 - 0.0 - - - - - - -
27/09:00pm 17.1 SW 8 9 1014.1 - 0.0 - - - - - - -
27/08:30pm 18.1 S 7 10 1013.6 - 0.0 - - - - - - -
27/08:00pm 18.8 SSW 7 9 1013.6 - 0.0 - - - - - - -
27/07:30pm 19.1 SSW 7 8 1013.3 - 0.0 - - - - - - -
27/07:00pm 19.5 SW 8 10 1013.1 - 0.0 - - - - - - -
27/06:30pm 19.9 SW 9 12 1012.6 - 0.0 - - - - - - -
27/06:00pm 20.9 WNW 7 11 1012.0 - 0.0 - - - - - - -
27/05:30pm 22.3 WNW 9 11 1011.6 - 0.0 - - - - - - -
27/05:00pm 25.6 N 12 15 1011.2 - 0.0 - - - - - - -
27/04:30pm 25.6 N 14 17 1011.0 - 0.0 - - - - - - -
27/04:00pm 26.8 NNW 19 23 1011.0 - 0.0 - - - - - - -
27/03:30pm 26.8 N 17 23 1010.8 - 0.0 - - - - - - -
27/03:00pm 24.4 N 17 22 1010.8 - 0.0 - - - - - - -
27/02:30pm 24.1 N 19 24 1010.8 - 0.0 - - - - - - -
27/02:00pm 24.3 N 19 23 1010.9 - 0.0 - - - - - - -
27/01:30pm 24.4 N 22 28 1010.9 - 0.0 - - - - - - -
27/01:00pm 24.8 N 22 29 1011.0 - 0.0 - - - - - - -
27/12:37pm 25.0 N 23 33 1011.3 - 0.0 - - - - - - -
27/12:30pm 25.4 N 26 33 1011.3 - 0.0 - - - - - - -
27/12:00pm 27.3 N 25 32 1011.6 - 0.0 - - - - - - -
27/11:30am 27.1 N 23 30 1012.1 - 0.0 - - - - - - -
27/11:00am 25.0 N 22 27 1012.4 - 0.0 - - - - - - -
27/10:30am 23.8 N 21 27 1012.8 - 0.0 - - - - - - -
27/10:00am 23.2 NNW 19 25 1013.2 - 0.0 - - - - - - -
27/09:30am 23.5 NNW 19 23 1013.3 - 0.0 - - - - - - -
27/09:16am 24.1 NNW 22 30 1013.5 - 0.0 - - - - - - -
27/09:00am 24.0 N 23 28 1012.7 - 0.0 - - - - - - -
27/08:30am 22.9 N 23 27 1012.3 - 0.0 - - - - - - -
27/08:00am 22.4 N 22 29 1012.5 - 0.0 - - - - - - -
27/07:30am 22.3 N 23 30 1012.2 - 0.0 - - - - - - -
27/07:00am 22.2 N 23 31 1012.2 - 0.0 - - - - - - -
27/06:30am 22.1 N 21 26 1012.2 - 0.0 - - - - - - -
27/06:00am 22.1 N 21 26 1012.1 - 0.0 - - - - - - -
27/05:30am 22.2 N 21 27 1012.3 - 0.0 - - - - - - -
27/05:00am 22.2 N 19 25 1012.3 - 0.0 - - - - - - -
27/04:30am 22.2 N 20 26 1012.1 - 0.0 - - - - - - -
27/04:00am 21.8 N 19 26 1012.1 - 0.0 - - - - - - -
27/03:30am 21.9 N 21 25 1012.2 - 0.0 - - - - - - -
27/03:00am 22.0 N 19 24 1012.6 - 0.0 - - - - - - -
27/02:30am 22.2 N 20 25 1012.8 - 0.0 - - - - - - -
27/02:00am 22.6 N 21 25 1013.0 - 0.0 - - - - - - -
27/01:30am 22.3 N 19 24 1013.5 - 0.0 - - - - - - -
27/01:00am 21.6 NNE 18 21 1013.7 - 0.0 - - - - - - -
27/12:30am 21.3 NNE 17 20 1013.9 - 0.0 - - - - - - -
27/12:00am 20.9 NNE 15 17 1014.2 - 0.0 - - - - - - -
 
Date/Time
CST
Temp

°C
Wind Pressure Rain
since 9am
mm
Weather Cloud Vis
km
Sea
Height
m
Swell
Dir
 
Speed
knots
Gust
knots
hPa Trend Height
m
Period
s
Dir
26/11:30pm 21.3 N 16 19 1014.3 - 0.0 - - - - - - -
26/11:00pm 22.0 NNE 18 22 1014.4 - 0.0 - - - - - - -
26/10:30pm 20.0 NNE 15 19 1014.6 - 0.0 - - - - - - -
26/10:00pm 19.5 NNE 13 15 1014.9 - 0.0 - - - - - - -
26/09:30pm 20.9 NNE 13 15 1014.9 - 0.0 - - - - - - -
26/09:00pm 21.0 NNE 13 16 1015.7 - 0.0 - - - - - - -
26/08:30pm 21.2 NNE 13 15 1015.8 - 0.0 - - - - - - -
26/08:00pm 21.5 NNE 13 16 1016.2 - 0.0 - - - - - - -
26/07:30pm 21.0 NNE 12 14 1016.4 - 0.0 - - - - - - -
26/07:00pm 22.6 NNE 13 15 1016.4 - 0.0 - - - - - - -
26/06:30pm 22.7 NNE 13 14 1016.2 - 0.0 - - - - - - -
26/06:00pm 23.6 NNE 12 13 1016.1 - 0.0 - - - - - - -
26/05:30pm 25.0 NNE 12 16 1016.0 - 0.0 - - - - - - -
26/05:00pm 26.4 N 16 20 1016.2 - 0.0 - - - - - - -
26/04:30pm 27.5 N 16 22 1016.3 - 0.0 - - - - - - -
26/04:00pm 28.1 N 14 19 1016.3 - 0.0 - - - - - - -
26/03:30pm 28.3 N 13 18 1016.5 - 0.0 - - - - - - -
26/03:00pm 28.2 N 18 22 1016.9 - 0.0 - - - - - - -
26/02:30pm 29.1 NNW 21 25 1017.2 - 0.0 - - - - - - -
26/02:00pm 28.4 NNW 20 27 1017.5 - 0.0 - - - - - - -
26/01:30pm 28.6 NNW 21 26 1017.8 - 0.0 - - - - - - -
26/01:00pm 28.4 NNW 22 28 1018.6 - 0.0 - - - - - - -
26/12:30pm 29.0 NNW 22 27 1019.1 - 0.0 - - - - - - -
26/12:00pm 28.4 N 21 28 1019.8 - 0.0 - - - - - - -
26/11:30am 27.9 N 21 27 1020.3 - 0.0 - - - - - - -
26/11:00am 28.2 N 18 23 1020.7 - 0.0 - - - - - - -
26/10:30am 27.1 N 19 25 1021.0 - 0.0 - - - - - - -
26/10:00am 26.9 N 20 25 1021.2 - 0.0 - - - - - - -
26/09:30am 26.0 N 17 22 1021.5 - 0.0 - - - - - - -
26/09:00am 24.6 N 15 19 1021.7 - 0.0 - - - - - - -
26/08:30am 22.7 N 14 17 1021.6 - 0.0 - - - - - - -
26/08:00am 21.0 N 12 16 1021.6 - 0.0 - - - - - - -
26/07:30am 17.9 NNE 12 14 1021.5 - 0.0 - - - - - - -
26/07:00am 15.0 NE 13 14 1021.4 - 0.0 - - - - - - -
26/06:30am 14.6 NE 12 13 1021.2 - 0.0 - - - - - - -
26/06:00am 15.1 NE 13 15 1021.1 - 0.0 - - - - - - -
26/05:30am 15.8 NE 13 14 1021.0 - 0.0 - - - - - - -

Other Formats:

Comma delimited format used in spreadsheet applications
http://www.bom.gov.au/fwo/IDS60701/IDS60701.95659.axf

JavaScript Object Notation format (JSON) in row-major order
http://www.bom.gov.au/fwo/IDS60701/IDS60701.95659.json